Time;durP1;ratioP1;P1;durP2;ratioP2;P2;SDS_P1;SDS_P2;PMS_P1;PMS_P2;Temp;Humidity;BMP_temperature;BMP_pressure;BME280_temperature;BME280_humidity;BME280_pressure;Samples;Min_cycle;Max_cycle;Signal;HPM_P1;HPM_P2
2020/12/20 00:00:58;;;;;;;25.02;13.38;;;8.70;99.90;;;;;;4989324;28;20082;-83
2020/12/20 00:03:23;;;;;;;27.52;13.68;;;8.70;99.90;;;;;;4958128;28;20094;-84
2020/12/20 00:05:49;;;;;;;23.90;12.25;;;8.70;99.90;;;;;;4973521;28;20031;-84
2020/12/20 00:08:15;;;;;;;23.60;11.32;;;8.70;99.90;;;;;;4973476;28;20039;-85
2020/12/20 00:10:40;;;;;;;25.10;12.45;;;8.70;99.90;;;;;;4940634;28;20484;-84
2020/12/20 00:13:06;;;;;;;27.23;12.30;;;8.80;99.90;;;;;;4956760;28;20488;-84
2020/12/20 00:15:32;;;;;;;28.52;12.98;;;8.80;99.90;;;;;;4956424;28;20480;-84
2020/12/20 00:17:57;;;;;;;22.13;12.68;;;8.80;99.90;;;;;;4940973;28;20031;-83
2020/12/20 00:20:23;;;;;;;27.55;13.32;;;8.80;99.90;;;;;;4974072;28;20043;-83
2020/12/20 00:22:48;;;;;;;32.25;13.20;;;8.80;99.90;;;;;;4956753;28;20031;-83
2020/12/20 00:25:15;;;;;;;25.73;12.02;;;8.80;99.90;;;;;;4956457;28;20037;-84
2020/12/20 00:27:40;;;;;;;26.40;12.38;;;8.80;99.90;;;;;;4973739;28;20031;-83
2020/12/20 00:30:07;;;;;;;21.08;10.55;;;8.80;99.90;;;;;;4956591;28;20030;-82
2020/12/20 00:32:33;;;;;;;27.08;11.73;;;8.80;99.90;;;;;;4940681;28;20030;-85
2020/12/20 00:34:59;;;;;;;30.20;13.07;;;8.80;99.90;;;;;;4973953;28;20038;-83
2020/12/20 00:37:25;;;;;;;30.45;12.32;;;8.80;99.90;;;;;;4962371;28;20484;-82
2020/12/20 00:39:52;;;;;;;19.77;11.02;;;8.80;99.90;;;;;;4972163;28;20058;-83
2020/12/20 00:42:17;;;;;;;22.88;11.63;;;8.80;99.90;;;;;;4944018;28;20062;-83
2020/12/20 00:44:43;;;;;;;27.92;11.82;;;8.80;99.90;;;;;;4944536;28;20035;-83
2020/12/20 00:47:09;;;;;;;26.98;12.85;;;8.80;99.90;;;;;;4960807;28;20059;-84
2020/12/20 00:49:34;;;;;;;22.20;12.20;;;8.80;99.90;;;;;;4976030;28;20035;-85
2020/12/20 00:52:02;;;;;;;22.10;11.73;;;8.80;99.90;;;;;;4959758;28;20038;-83
2020/12/20 00:54:28;;;;;;;35.45;14.10;;;8.80;99.90;;;;;;4977097;28;20050;-84
2020/12/20 00:56:55;;;;;;;23.45;11.23;;;8.80;99.90;;;;;;4976657;28;20081;-83
2020/12/20 00:59:21;;;;;;;24.75;11.18;;;8.80;99.90;;;;;;4975818;28;20480;-83
2020/12/20 01:01:46;;;;;;;23.98;11.55;;;8.80;99.90;;;;;;4975536;28;20041;-82
2020/12/20 01:04:14;;;;;;;24.85;11.88;;;8.80;99.90;;;;;;4959736;28;20042;-84
2020/12/20 01:06:39;;;;;;;26.48;11.90;;;8.80;99.90;;;;;;4943836;28;20034;-84
2020/12/20 01:09:06;;;;;;;22.08;11.65;;;8.80;99.90;;;;;;4959703;28;20046;-84
2020/12/20 01:11:32;;;;;;;30.05;12.00;;;8.80;99.90;;;;;;4959781;28;20078;-83
2020/12/20 01:13:58;;;;;;;26.65;12.20;;;8.80;99.90;;;;;;4928118;28;20113;-84
2020/12/20 01:16:26;;;;;;;24.52;11.77;;;8.80;99.90;;;;;;4959980;28;20475;-83
2020/12/20 01:18:53;;;;;;;31.55;13.38;;;8.80;99.90;;;;;;4976469;28;20089;-83
2020/12/20 01:21:19;;;;;;;34.00;13.85;;;8.80;99.90;;;;;;4943516;28;20038;-83
2020/12/20 01:23:45;;;;;;;28.83;13.02;;;8.80;99.90;;;;;;4943237;28;20448;-83
2020/12/20 01:26:11;;;;;;;37.22;13.18;;;8.80;99.90;;;;;;4959241;28;20141;-83
2020/12/20 01:28:37;;;;;;;36.67;13.50;;;8.80;99.90;;;;;;4976914;28;20045;-84
2020/12/20 01:31:07;;;;;;;30.80;12.88;;;8.70;99.90;;;;;;4943074;28;20126;-82
2020/12/20 01:33:35;;;;;;;26.55;13.43;;;8.80;99.90;;;;;;4959490;28;20058;-83
2020/12/20 01:36:05;;;;;;;24.58;14.18;;;8.70;99.90;;;;;;4958971;28;20410;-83
2020/12/20 01:38:31;;;;;;;30.05;13.73;;;8.70;99.90;;;;;;4960390;28;20031;-83
2020/12/20 01:40:56;;;;;;;27.92;13.73;;;8.70;99.90;;;;;;4960230;28;20176;-83
2020/12/20 01:43:22;;;;;;;29.58;14.80;;;8.70;99.90;;;;;;4976583;28;20097;-83
2020/12/20 01:45:48;;;;;;;29.63;14.05;;;8.70;99.90;;;;;;4960539;28;20114;-83
2020/12/20 01:48:14;;;;;;;27.15;13.52;;;8.80;99.90;;;;;;4960511;28;20358;-84
2020/12/20 01:50:42;;;;;;;36.60;13.90;;;8.80;99.90;;;;;;4977211;28;20109;-82
2020/12/20 01:53:10;;;;;;;34.15;14.82;;;8.80;99.90;;;;;;4977353;28;20029;-82
2020/12/20 01:55:37;;;;;;;23.88;13.15;;;8.80;99.90;;;;;;4959458;28;20051;-84
2020/12/20 01:58:03;;;;;;;29.70;13.27;;;8.90;99.90;;;;;;4958528;28;20023;-84
2020/12/20 02:00:29;;;;;;;24.02;13.02;;;8.90;99.90;;;;;;4958371;28;20058;-83
2020/12/20 02:02:54;;;;;;;27.45;13.18;;;8.90;99.90;;;;;;4926552;28;20035;-83
2020/12/20 02:05:20;;;;;;;32.85;13.07;;;8.90;99.90;;;;;;4942297;28;20031;-84
2020/12/20 02:07:47;;;;;;;36.53;14.23;;;8.90;99.90;;;;;;4957757;28;20058;-83
2020/12/20 02:10:16;;;;;;;25.60;13.38;;;8.90;99.90;;;;;;4958326;28;20031;-84
2020/12/20 02:12:42;;;;;;;34.35;12.43;;;8.90;99.90;;;;;;4958288;28;20054;-83
2020/12/20 02:15:07;;;;;;;31.88;14.32;;;8.90;99.90;;;;;;4942416;28;20511;-82
2020/12/20 02:17:33;;;;;;;30.75;13.52;;;8.90;99.90;;;;;;4958011;28;20382;-84
2020/12/20 02:19:59;;;;;;;29.42;12.85;;;8.90;99.90;;;;;;4957582;28;20035;-84
2020/12/20 02:22:24;;;;;;;27.77;13.38;;;8.90;99.90;;;;;;4941765;28;20027;-83
2020/12/20 02:24:50;;;;;;;30.75;12.75;;;8.80;99.90;;;;;;4958095;28;20424;-84
2020/12/20 02:27:15;;;;;;;42.15;14.07;;;8.80;99.90;;;;;;4926198;28;20062;-83
2020/12/20 02:29:41;;;;;;;30.85;13.85;;;8.90;99.90;;;;;;4941871;28;20090;-84
2020/12/20 02:32:06;;;;;;;30.75;12.90;;;8.80;99.90;;;;;;4957901;28;20392;-83
2020/12/20 02:34:32;;;;;;;26.80;13.00;;;8.80;99.90;;;;;;4925725;28;20090;-83
2020/12/20 02:36:58;;;;;;;28.00;13.80;;;8.90;99.90;;;;;;4941609;28;20058;-83
2020/12/20 02:39:23;;;;;;;32.95;13.00;;;8.90;99.90;;;;;;4975050;28;20126;-84
2020/12/20 02:41:54;;;;;;;31.73;12.98;;;8.90;99.90;;;;;;4957780;28;20085;-83
2020/12/20 02:44:20;;;;;;;27.45;13.23;;;8.90;99.90;;;;;;4958126;28;20069;-84
2020/12/20 02:46:46;;;;;;;24.27;12.70;;;8.90;99.90;;;;;;4957610;28;20504;-83
2020/12/20 02:49:11;;;;;;;24.63;11.57;;;8.90;99.90;;;;;;4957804;28;20085;-83
2020/12/20 02:51:40;;;;;;;23.27;11.85;;;8.90;99.90;;;;;;4941712;28;20085;-83
2020/12/20 02:54:06;;;;;;;28.25;11.88;;;9.00;99.90;;;;;;4974988;28;20504;-84
2020/12/20 02:56:31;;;;;;;32.63;11.98;;;9.00;99.90;;;;;;4975312;28;20031;-84
2020/12/20 02:58:57;;;;;;;29.63;11.90;;;8.90;99.90;;;;;;4941176;28;20480;-83
2020/12/20 03:01:22;;;;;;;25.35;11.82;;;8.90;99.90;;;;;;4940709;28;20562;-83
2020/12/20 03:03:48;;;;;;;25.33;12.23;;;8.90;99.90;;;;;;4957236;28;20027;-89
2020/12/20 03:06:13;;;;;;;32.13;12.10;;;8.90;99.90;;;;;;4974510;28;20038;-83
2020/12/20 03:08:39;;;;;;;30.38;12.20;;;8.90;99.90;;;;;;4957238;28;20031;-83
2020/12/20 03:11:05;;;;;;;32.30;12.38;;;8.80;99.90;;;;;;4941407;28;20042;-83
2020/12/20 03:13:30;;;;;;;25.50;10.85;;;8.80;99.90;;;;;;4962456;28;20023;-82
2020/12/20 03:15:56;;;;;;;26.33;10.77;;;8.90;99.90;;;;;;4969332;28;20058;-82
2020/12/20 03:18:21;;;;;;;24.98;10.90;;;9.00;99.90;;;;;;4957614;28;20504;-83
2020/12/20 03:20:48;;;;;;;25.52;10.85;;;8.90;99.90;;;;;;4956779;28;20070;-84
2020/12/20 03:23:13;;;;;;;27.13;11.15;;;9.10;99.90;;;;;;4941181;28;20451;-83
2020/12/20 03:25:39;;;;;;;32.25;12.25;;;9.00;99.90;;;;;;4941036;28;20030;-83
2020/12/20 03:28:04;;;;;;;28.42;11.00;;;8.90;99.90;;;;;;4974446;28;20029;-83
2020/12/20 03:30:30;;;;;;;33.78;10.88;;;8.90;99.90;;;;;;4956895;28;20058;-84
2020/12/20 03:32:56;;;;;;;30.05;10.57;;;8.80;99.90;;;;;;4957125;28;20105;-83
2020/12/20 03:35:22;;;;;;;33.72;10.57;;;8.80;99.90;;;;;;4957732;28;20039;-83
2020/12/20 03:37:50;;;;;;;30.35;10.80;;;8.90;99.90;;;;;;4942484;28;20030;-83
2020/12/20 03:40:17;;;;;;;28.23;10.90;;;8.80;99.90;;;;;;4975099;28;20027;-83
2020/12/20 03:42:43;;;;;;;28.58;11.68;;;8.80;99.90;;;;;;4957736;28;20031;-83
2020/12/20 03:45:09;;;;;;;31.67;11.05;;;8.70;99.90;;;;;;4958274;28;20042;-83
2020/12/20 03:47:35;;;;;;;30.38;10.82;;;8.70;99.90;;;;;;4956839;28;20035;-84
2020/12/20 03:50:00;;;;;;;34.83;10.52;;;8.70;99.90;;;;;;4940515;28;20174;-83
2020/12/20 03:52:26;;;;;;;34.40;10.95;;;8.70;99.90;;;;;;4941484;28;20054;-82
2020/12/20 03:54:51;;;;;;;28.30;11.25;;;8.70;99.90;;;;;;4956606;28;20409;-83
2020/12/20 03:57:17;;;;;;;26.98;10.20;;;8.70;99.90;;;;;;4973834;28;20076;-82
2020/12/20 03:59:42;;;;;;;29.42;10.65;;;8.70;99.90;;;;;;4956282;28;20110;-83
2020/12/20 04:02:08;;;;;;;27.38;10.15;;;8.70;99.90;;;;;;4973684;28;20049;-83
2020/12/20 04:04:34;;;;;;;35.97;10.48;;;8.70;99.90;;;;;;4956581;28;20038;-83
2020/12/20 04:06:59;;;;;;;33.63;9.77;;;8.70;99.90;;;;;;4956502;28;20054;-84
2020/12/20 04:09:25;;;;;;;27.83;9.55;;;8.80;99.90;;;;;;4956602;28;20127;-84
2020/12/20 04:11:51;;;;;;;26.15;9.27;;;8.80;99.90;;;;;;4957257;28;20031;-83
2020/12/20 04:14:16;;;;;;;27.25;9.93;;;8.90;99.90;;;;;;4960076;28;20034;-82
2020/12/20 04:16:42;;;;;;;25.55;9.65;;;8.90;99.90;;;;;;4960671;28;20035;-82
2020/12/20 04:19:07;;;;;;;28.05;9.68;;;8.80;99.90;;;;;;4976304;28;20042;-83
2020/12/20 04:21:33;;;;;;;27.77;11.38;;;8.80;99.90;;;;;;4977803;28;20457;-84
2020/12/20 04:23:59;;;;;;;29.63;9.68;;;8.80;99.90;;;;;;4944261;28;20031;-83
2020/12/20 04:26:25;;;;;;;31.13;10.07;;;8.80;99.90;;;;;;4960072;28;20391;-84
2020/12/20 04:28:50;;;;;;;30.55;10.43;;;8.80;99.90;;;;;;4977921;28;20043;-84
2020/12/20 04:31:16;;;;;;;23.20;9.15;;;8.80;99.90;;;;;;4977102;28;20085;-83
2020/12/20 04:33:42;;;;;;;32.58;9.60;;;8.80;99.90;;;;;;4960055;28;20492;-83
2020/12/20 04:36:07;;;;;;;23.85;9.73;;;8.80;99.90;;;;;;4977206;28;20062;-84
2020/12/20 04:38:34;;;;;;;33.15;9.73;;;8.70;99.90;;;;;;4960047;28;20054;-84
2020/12/20 04:41:00;;;;;;;26.95;10.00;;;8.70;99.90;;;;;;4960335;28;20042;-84
2020/12/20 04:43:27;;;;;;;31.75;10.02;;;8.60;99.90;;;;;;4959719;28;20031;-83
2020/12/20 04:45:54;;;;;;;35.70;11.68;;;8.60;99.90;;;;;;4928143;28;20035;-83
2020/12/20 04:48:20;;;;;;;28.25;10.25;;;8.60;99.90;;;;;;4943714;28;20040;-83
2020/12/20 04:50:47;;;;;;;32.42;9.82;;;8.50;99.90;;;;;;4959741;28;20035;-83
2020/12/20 04:53:13;;;;;;;38.63;11.25;;;8.60;99.90;;;;;;4928084;28;20089;-82
2020/12/20 04:55:39;;;;;;;33.15;11.52;;;8.40;99.90;;;;;;4959255;28;20101;-82
2020/12/20 04:58:05;;;;;;;40.17;11.27;;;8.40;99.90;;;;;;4959781;28;20490;-84
2020/12/20 05:00:31;;;;;;;36.33;11.52;;;8.50;99.90;;;;;;4975798;28;20131;-84
2020/12/20 05:02:57;;;;;;;23.88;11.20;;;8.40;99.90;;;;;;4959308;28;20038;-84
2020/12/20 05:05:23;;;;;;;30.92;9.98;;;8.40;99.90;;;;;;4959709;28;20054;-85
2020/12/20 05:07:50;;;;;;;34.53;12.15;;;8.40;99.90;;;;;;4959237;28;20062;-84
2020/12/20 05:10:15;;;;;;;38.53;10.18;;;8.40;99.90;;;;;;4959216;28;20031;-83
2020/12/20 05:12:41;;;;;;;32.00;11.98;;;8.40;99.90;;;;;;4959701;28;20039;-84
2020/12/20 05:15:20;;;;;;;27.48;9.65;;;8.40;99.90;;;;;;4943182;28;20509;-83
2020/12/20 05:17:46;;;;;;;33.78;10.73;;;8.40;99.90;;;;;;4976682;28;20023;-83
2020/12/20 05:20:39;;;;;;;30.33;10.45;;;8.40;99.90;;;;;;4959509;28;20039;-83
2020/12/20 05:23:06;;;;;;;25.40;9.40;;;8.40;99.90;;;;;;4952849;28;20038;-83
2020/12/20 05:25:33;;;;;;;35.50;11.35;;;8.30;99.90;;;;;;4975821;28;20243;-84
2020/12/20 05:28:13;;;;;;;35.65;11.98;;;8.30;99.90;;;;;;4959458;28;20034;-84
2020/12/20 05:30:40;;;;;;;27.33;11.57;;;8.30;99.90;;;;;;4959490;28;20054;-84
2020/12/20 05:33:06;;;;;;;34.67;11.60;;;8.40;99.90;;;;;;4976543;28;20034;-84
2020/12/20 05:35:32;;;;;;;33.45;11.82;;;8.30;99.90;;;;;;4958467;28;20035;-84
2020/12/20 05:37:59;;;;;;;34.45;12.02;;;8.30;99.90;;;;;;4959204;28;20027;-83
2020/12/20 05:40:28;;;;;;;26.23;11.80;;;8.30;99.90;;;;;;4958902;28;20035;-83
2020/12/20 05:42:59;;;;;;;33.80;12.75;;;8.30;99.90;;;;;;4958941;28;20023;-82
2020/12/20 05:45:27;;;;;;;46.05;12.93;;;8.30;99.90;;;;;;4976359;28;20046;-84
2020/12/20 05:47:53;;;;;;;36.08;12.02;;;8.30;99.90;;;;;;4959063;28;20034;-83
2020/12/20 05:50:19;;;;;;;29.80;10.73;;;8.30;99.90;;;;;;4952487;28;20102;-83
2020/12/20 05:53:00;;;;;;;36.35;11.55;;;8.30;99.90;;;;;;4951601;28;20507;-84
2020/12/20 05:55:35;;;;;;;27.23;10.73;;;8.20;99.90;;;;;;4942940;28;20054;-83
2020/12/20 05:58:11;;;;;;;30.55;11.27;;;8.20;99.90;;;;;;4990980;28;20026;-83
2020/12/20 06:00:38;;;;;;;30.92;11.98;;;8.20;99.90;;;;;;4942126;28;20043;-84
2020/12/20 06:03:04;;;;;;;37.20;11.35;;;8.20;99.90;;;;;;4942910;28;20027;-84
2020/12/20 06:05:43;;;;;;;29.73;12.40;;;8.20;99.90;;;;;;4975694;28;20493;-83
2020/12/20 06:08:16;;;;;;;34.47;13.13;;;8.20;99.90;;;;;;4975936;28;20460;-83
2020/12/20 06:10:48;;;;;;;33.17;12.48;;;8.20;99.90;;;;;;4975704;28;20043;-83
2020/12/20 06:13:18;;;;;;;30.23;10.90;;;8.10;99.90;;;;;;4958529;28;20045;-83
2020/12/20 06:15:45;;;;;;;23.70;9.88;;;8.30;99.90;;;;;;4958170;28;20054;-83
2020/12/20 06:18:21;;;;;;;30.25;11.25;;;8.20;99.90;;;;;;4975539;28;20034;-84
2020/12/20 06:21:01;;;;;;;36.00;12.93;;;8.10;99.90;;;;;;4958415;28;20037;-84
2020/12/20 06:23:34;;;;;;;24.45;10.63;;;8.20;99.90;;;;;;4976040;28;20031;-83
2020/12/20 06:26:02;;;;;;;32.60;12.43;;;8.20;99.90;;;;;;4975782;28;20102;-84
2020/12/20 06:28:30;;;;;;;33.58;13.32;;;8.10;99.90;;;;;;4975967;28;20157;-84
2020/12/20 06:30:56;;;;;;;29.83;11.30;;;8.10;99.90;;;;;;4976164;28;20031;-83
2020/12/20 06:33:37;;;;;;;28.48;12.02;;;8.20;99.90;;;;;;4957697;28;20500;-83
2020/12/20 06:36:09;;;;;;;23.70;12.07;;;8.10;99.90;;;;;;4974371;28;20532;-83
2020/12/20 06:38:35;;;;;;;34.00;13.57;;;8.10;99.90;;;;;;4958197;28;20059;-84
2020/12/20 06:41:01;;;;;;;32.55;13.02;;;8.10;99.90;;;;;;4957840;28;20460;-83
2020/12/20 06:43:35;;;;;;;31.90;12.55;;;8.10;99.90;;;;;;4975134;28;20483;-83
2020/12/20 06:46:01;;;;;;;39.33;14.07;;;8.10;99.90;;;;;;4957556;28;20069;-83
2020/12/20 06:48:36;;;;;;;30.25;12.38;;;8.10;99.90;;;;;;4957512;28;20142;-82
2020/12/20 06:51:06;;;;;;;33.42;12.63;;;8.10;99.90;;;;;;4975053;28;20031;-84
2020/12/20 06:53:52;;;;;;;33.63;14.18;;;8.10;99.90;;;;;;4957572;28;20035;-83
2020/12/20 06:56:22;;;;;;;31.38;12.52;;;8.10;99.90;;;;;;4957284;28;20074;-83
2020/12/20 06:58:49;;;;;;;31.95;12.80;;;8.10;99.90;;;;;;4974763;28;20030;-84
2020/12/20 07:01:38;;;;;;;32.30;12.43;;;8.10;99.90;;;;;;4973323;28;20034;-83
2020/12/20 07:04:06;;;;;;;30.90;12.35;;;8.10;99.90;;;;;;4941992;28;20074;-83
2020/12/20 07:06:32;;;;;;;35.53;12.95;;;8.10;99.90;;;;;;4957294;28;20049;-83
2020/12/20 07:09:05;;;;;;;45.58;15.23;;;8.00;99.90;;;;;;4941377;28;20035;-84
2020/12/20 07:11:31;;;;;;;35.92;13.98;;;8.00;99.90;;;;;;4957169;28;20035;-83
2020/12/20 07:13:57;;;;;;;34.83;12.93;;;8.00;99.90;;;;;;4973009;28;20421;-84
2020/12/20 07:16:36;;;;;;;36.47;14.23;;;8.00;99.90;;;;;;4974107;28;20085;-83
2020/12/20 07:19:03;;;;;;;34.88;13.45;;;8.00;99.90;;;;;;4957579;28;20039;-83
2020/12/20 07:21:28;;;;;;;28.58;14.07;;;8.00;99.90;;;;;;4960335;28;20098;-83
2020/12/20 07:24:10;;;;;;;39.25;15.75;;;8.00;99.90;;;;;;4959422;28;20054;-84
2020/12/20 07:26:36;;;;;;;37.95;16.80;;;8.00;99.90;;;;;;4992201;28;20058;-84
2020/12/20 07:29:03;;;;;;;36.25;14.57;;;8.00;99.90;;;;;;4989418;28;20059;-84
2020/12/20 07:31:29;;;;;;;26.20;12.13;;;8.00;99.90;;;;;;4973065;28;20035;-83
2020/12/20 07:33:55;;;;;;;42.60;16.65;;;8.00;99.90;;;;;;4940749;28;20034;-83
2020/12/20 07:36:22;;;;;;;31.85;13.90;;;8.00;99.90;;;;;;4956709;28;20077;-83
2020/12/20 07:38:48;;;;;;;34.55;14.07;;;8.00;99.90;;;;;;4940465;28;20139;-83
2020/12/20 07:41:16;;;;;;;38.88;14.65;;;7.90;99.90;;;;;;4956672;28;20122;-83
2020/12/20 07:43:46;;;;;;;38.08;14.15;;;7.90;99.90;;;;;;4974186;28;20151;-82
2020/12/20 07:46:13;;;;;;;45.72;16.33;;;8.00;99.90;;;;;;4956772;28;20042;-82
2020/12/20 07:48:39;;;;;;;37.38;14.55;;;8.00;99.90;;;;;;4960288;28;20105;-83
2020/12/20 07:51:16;;;;;;;43.65;15.38;;;8.00;99.90;;;;;;4945163;28;20126;-83
2020/12/20 07:53:50;;;;;;;33.25;14.15;;;8.00;99.90;;;;;;4977689;28;20086;-84
2020/12/20 07:56:33;;;;;;;39.83;13.90;;;8.10;99.90;;;;;;4978294;28;20031;-82
2020/12/20 07:59:12;;;;;;;42.47;13.18;;;8.00;99.90;;;;;;4958995;28;20089;-84
2020/12/20 08:01:39;;;;;;;36.47;12.52;;;8.00;99.90;;;;;;4977270;28;20037;-84
2020/12/20 08:04:21;;;;;;;36.53;12.50;;;8.00;99.90;;;;;;4944098;28;20061;-83
2020/12/20 08:06:47;;;;;;;39.75;13.95;;;8.10;99.90;;;;;;4960535;28;20065;-84
2020/12/20 08:09:14;;;;;;;39.88;13.52;;;8.10;99.90;;;;;;4960471;28;20090;-84
2020/12/20 08:11:41;;;;;;;33.20;11.75;;;8.10;99.90;;;;;;4977483;28;20470;-84
2020/12/20 08:14:09;;;;;;;49.90;12.77;;;8.10;99.90;;;;;;4977948;28;20093;-83
2020/12/20 08:16:37;;;;;;;44.75;14.05;;;8.10;99.90;;;;;;4959806;28;20437;-85
2020/12/20 08:19:07;;;;;;;39.85;12.05;;;8.10;99.90;;;;;;4977469;28;20042;-84
2020/12/20 08:22:00;;;;;;;36.50;12.75;;;8.10;99.90;;;;;;4960271;28;20185;-84
2020/12/20 08:24:44;;;;;;;33.40;10.65;;;8.10;99.90;;;;;;4961752;28;20077;-82
2020/12/20 08:27:21;;;;;;;40.83;11.77;;;8.10;99.90;;;;;;4978211;28;20075;-82
2020/12/20 08:29:49;;;;;;;36.05;10.60;;;8.20;99.90;;;;;;4955881;28;20031;-84
2020/12/20 08:32:17;;;;;;;39.00;11.45;;;8.20;99.90;;;;;;4974266;28;20026;-84
2020/12/20 08:34:43;;;;;;;37.22;12.00;;;8.30;99.90;;;;;;4977277;28;20035;-84
2020/12/20 08:37:11;;;;;;;33.13;10.55;;;8.20;99.90;;;;;;4943809;28;20038;-85
2020/12/20 08:39:37;;;;;;;31.33;11.63;;;8.30;99.90;;;;;;4976904;28;20026;-85
2020/12/20 08:42:04;;;;;;;39.08;11.70;;;8.30;99.90;;;;;;4943916;28;20035;-84
2020/12/20 08:44:30;;;;;;;33.00;11.20;;;8.30;99.90;;;;;;4943962;28;20035;-85
2020/12/20 08:47:08;;;;;;;39.55;11.90;;;8.20;99.90;;;;;;4959919;28;20035;-84
2020/12/20 08:49:34;;;;;;;38.10;11.43;;;8.20;99.90;;;;;;4959660;28;20034;-85
2020/12/20 08:52:11;;;;;;;42.92;11.07;;;8.20;99.90;;;;;;4959490;28;20033;-84
2020/12/20 08:54:37;;;;;;;48.30;11.93;;;8.20;99.90;;;;;;4959192;28;20050;-85
2020/12/20 08:57:10;;;;;;;34.55;11.77;;;8.20;99.90;;;;;;4959485;28;20042;-84
2020/12/20 08:59:35;;;;;;;37.10;11.05;;;8.20;99.90;;;;;;4976311;28;20038;-84
2020/12/20 09:02:03;;;;;;;47.55;13.18;;;8.30;99.90;;;;;;4976785;28;20109;-84
2020/12/20 09:04:31;;;;;;;31.58;10.43;;;8.30;99.90;;;;;;4960076;28;20532;-84
2020/12/20 09:07:05;;;;;;;41.22;10.90;;;8.30;99.90;;;;;;4977661;28;20057;-84
2020/12/20 09:09:31;;;;;;;45.30;10.73;;;8.30;99.90;;;;;;4959584;28;20043;-84
2020/12/20 09:12:18;;;;;;;38.08;11.18;;;8.30;99.90;;;;;;4960227;28;20113;-83
2020/12/20 09:15:05;;;;;;;42.20;11.38;;;8.30;99.90;;;;;;4976984;28;20018;-85
2020/12/20 09:17:40;;;;;;;36.40;11.13;;;8.30;99.90;;;;;;4960309;28;20026;-84
2020/12/20 09:20:10;;;;;;;42.22;10.43;;;8.30;99.90;;;;;;4959251;28;20074;-84
2020/12/20 09:22:54;;;;;;;34.22;10.25;;;8.30;99.90;;;;;;4976567;28;20027;-84
2020/12/20 09:25:40;;;;;;;38.17;10.70;;;8.40;99.90;;;;;;4958897;28;20023;-86
2020/12/20 09:28:11;;;;;;;38.38;11.27;;;8.40;99.90;;;;;;4958882;28;20117;-83
2020/12/20 09:30:39;;;;;;;37.60;11.02;;;8.40;99.90;;;;;;4975879;28;20039;-84
2020/12/20 09:33:36;;;;;;;37.47;10.07;;;8.50;99.90;;;;;;4959060;28;20488;-85
2020/12/20 09:36:15;;;;;;;36.85;11.52;;;8.50;99.90;;;;;;4947571;28;20043;-85
2020/12/20 09:38:43;;;;;;;50.53;14.23;;;8.50;99.90;;;;;;4958989;28;20027;-84
2020/12/20 09:41:13;;;;;;;37.80;10.48;;;8.60;99.90;;;;;;4958878;28;20034;-84
2020/12/20 09:43:40;;;;;;;37.63;10.65;;;8.60;99.90;;;;;;4942938;28;20035;-84
2020/12/20 09:46:06;;;;;;;32.30;10.20;;;8.60;99.90;;;;;;4959010;28;20038;-85
2020/12/20 09:48:32;;;;;;;34.38;10.65;;;8.60;99.90;;;;;;4958952;28;20034;-86
2020/12/20 09:50:57;;;;;;;42.60;11.30;;;8.60;99.90;;;;;;4943030;28;20503;-85
2020/12/20 09:53:23;;;;;;;34.03;10.30;;;8.60;99.90;;;;;;4958589;28;20081;-84
2020/12/20 09:55:49;;;;;;;38.67;11.18;;;8.60;99.90;;;;;;4942660;28;20081;-84
2020/12/20 09:58:15;;;;;;;38.00;10.32;;;8.70;99.90;;;;;;4958923;28;20078;-84
2020/12/20 10:00:42;;;;;;;40.05;10.70;;;8.60;99.90;;;;;;4976069;28;20034;-84
2020/12/20 10:03:09;;;;;;;33.13;10.35;;;8.60;99.90;;;;;;4942556;28;20038;-85
2020/12/20 10:05:35;;;;;;;33.90;10.90;;;8.60;99.90;;;;;;4958243;28;20543;-85
2020/12/20 10:08:01;;;;;;;39.67;11.93;;;8.70;99.90;;;;;;4958864;28;20107;-87
2020/12/20 10:10:27;;;;;;;36.58;11.73;;;8.60;99.90;;;;;;4958339;28;20540;-86
2020/12/20 10:12:53;;;;;;;39.97;10.88;;;8.60;99.90;;;;;;4942461;28;20122;-84
2020/12/20 10:15:19;;;;;;;33.65;10.93;;;8.70;99.90;;;;;;4958594;28;20030;-86
2020/12/20 10:17:45;;;;;;;34.50;9.98;;;8.70;99.90;;;;;;4941925;28;20350;-85
2020/12/20 10:20:11;;;;;;;38.05;10.85;;;8.80;99.90;;;;;;4975496;28;20035;-87
2020/12/20 10:22:37;;;;;;;38.35;12.15;;;8.80;99.90;;;;;;4942572;28;20093;-84
2020/12/20 10:25:05;;;;;;;30.50;10.63;;;8.80;99.90;;;;;;4975803;28;20034;-84
2020/12/20 10:27:31;;;;;;;41.63;10.15;;;8.90;99.90;;;;;;4958044;28;20069;-85
2020/12/20 10:29:57;;;;;;;35.67;11.25;;;8.80;99.90;;;;;;4941965;28;20043;-85
2020/12/20 10:32:22;;;;;;;32.88;10.48;;;8.80;99.90;;;;;;4958248;28;20033;-84
2020/12/20 10:34:48;;;;;;;33.55;11.82;;;8.80;99.90;;;;;;4942264;28;20034;-83
2020/12/20 10:37:14;;;;;;;37.42;11.05;;;8.80;99.90;;;;;;4941733;28;20172;-84
2020/12/20 10:39:39;;;;;;;38.47;10.90;;;8.90;99.90;;;;;;4942060;28;20039;-85
2020/12/20 10:42:05;;;;;;;29.30;9.90;;;8.90;99.90;;;;;;4958192;28;20031;-83
2020/12/20 10:44:31;;;;;;;37.00;9.88;;;8.90;99.90;;;;;;4974016;28;20031;-85
2020/12/20 10:46:57;;;;;;;40.92;10.10;;;9.00;99.90;;;;;;4926157;28;20392;-84
2020/12/20 10:49:22;;;;;;;33.60;10.48;;;9.00;99.90;;;;;;4942264;28;20043;-84
2020/12/20 10:51:57;;;;;;;36.45;10.05;;;9.10;99.90;;;;;;4959862;28;20035;-84
2020/12/20 10:54:28;;;;;;;32.78;8.88;;;9.10;99.90;;;;;;4943910;28;20038;-86
2020/12/20 10:56:55;;;;;;;31.40;9.75;;;9.10;99.90;;;;;;4960415;28;20030;-86
2020/12/20 10:59:21;;;;;;;34.25;9.30;;;9.10;99.90;;;;;;4975434;28;20043;-83
2020/12/20 11:01:49;;;;;;;32.55;10.73;;;9.20;99.90;;;;;;4964285;29;20077;-86
2020/12/20 11:04:15;;;;;;;47.60;10.27;;;9.20;99.90;;;;;;4940515;29;20062;-82
2020/12/20 11:06:40;;;;;;;32.25;9.57;;;9.20;99.90;;;;;;4955454;29;20110;-86
2020/12/20 11:09:06;;;;;;;30.23;9.45;;;9.30;99.90;;;;;;4940735;29;20035;-84
2020/12/20 11:11:32;;;;;;;31.15;10.20;;;9.20;99.90;;;;;;4940105;29;20126;-86
2020/12/20 11:13:59;;;;;;;34.42;9.30;;;9.30;99.90;;;;;;4922711;29;20461;-84
2020/12/20 11:16:25;;;;;;;34.95;10.05;;;9.30;99.90;;;;;;4955446;29;20054;-86
2020/12/20 11:18:51;;;;;;;31.77;8.98;;;9.30;99.90;;;;;;4955692;28;20114;-85
2020/12/20 11:21:19;;;;;;;27.35;8.55;;;9.40;99.90;;;;;;4955086;28;20033;-85
2020/12/20 11:23:48;;;;;;;29.52;10.15;;;9.40;99.90;;;;;;4955426;28;20111;-86
2020/12/20 11:26:21;;;;;;;34.03;9.43;;;9.40;99.90;;;;;;4954916;28;20054;-85
2020/12/20 11:28:49;;;;;;;32.92;9.32;;;9.50;99.90;;;;;;4954098;29;20031;-85
2020/12/20 11:31:20;;;;;;;30.90;9.55;;;9.50;99.90;;;;;;4957309;28;20029;-86
2020/12/20 11:33:46;;;;;;;26.23;9.40;;;9.50;99.90;;;;;;4974732;28;20053;-85
2020/12/20 11:36:17;;;;;;;34.63;9.98;;;9.50;99.90;;;;;;4975244;28;20464;-84
2020/12/20 11:38:43;;;;;;;29.63;10.20;;;9.60;99.90;;;;;;4957890;28;20511;-83
2020/12/20 11:41:09;;;;;;;29.05;9.73;;;9.60;99.90;;;;;;4974346;28;20039;-84
2020/12/20 11:43:35;;;;;;;34.33;10.43;;;9.70;99.90;;;;;;4957475;28;20526;-85
2020/12/20 11:46:00;;;;;;;38.85;11.30;;;9.60;99.90;;;;;;4957319;28;20073;-86
2020/12/20 11:48:29;;;;;;;36.10;10.70;;;9.70;99.90;;;;;;4940543;28;20397;-84
2020/12/20 11:50:55;;;;;;;32.00;9.88;;;9.70;99.90;;;;;;4941250;28;20039;-85
2020/12/20 11:53:21;;;;;;;30.42;9.45;;;9.70;99.90;;;;;;4957173;28;20457;-83
2020/12/20 11:55:47;;;;;;;30.60;10.10;;;9.80;99.90;;;;;;4956276;28;20051;-85
2020/12/20 11:58:13;;;;;;;45.28;11.43;;;9.80;99.90;;;;;;4956671;28;20039;-84
2020/12/20 12:00:43;;;;;;;33.08;11.48;;;9.80;99.90;;;;;;4957253;28;20050;-86
2020/12/20 12:03:10;;;;;;;30.63;11.55;;;9.80;99.90;;;;;;4956970;28;20105;-85
2020/12/20 12:05:37;;;;;;;36.42;10.93;;;9.90;99.90;;;;;;4974266;28;20062;-91
2020/12/20 12:08:03;;;;;;;38.33;10.20;;;9.90;99.90;;;;;;4941086;28;20045;-85
2020/12/20 12:10:28;;;;;;;29.63;11.40;;;9.90;99.90;;;;;;4941567;28;20392;-85
2020/12/20 12:12:54;;;;;;;30.33;11.07;;;9.80;99.90;;;;;;4941249;28;20037;-85
2020/12/20 12:15:20;;;;;;;31.45;11.77;;;9.80;99.90;;;;;;4974897;28;20036;-87
2020/12/20 12:17:45;;;;;;;32.97;11.73;;;10.00;99.90;;;;;;4957975;28;20027;-87
2020/12/20 12:20:11;;;;;;;29.17;10.68;;;10.00;99.90;;;;;;4937419;29;20059;-83
2020/12/20 12:22:37;;;;;;;31.23;11.18;;;10.00;99.90;;;;;;4953409;29;20062;-84
2020/12/20 12:25:02;;;;;;;32.88;12.32;;;10.00;99.90;;;;;;4937606;29;20043;-84
2020/12/20 12:27:28;;;;;;;31.38;11.80;;;9.90;99.90;;;;;;4953722;29;20214;-84
2020/12/20 12:29:54;;;;;;;36.72;12.52;;;9.80;99.90;;;;;;4938141;29;20078;-84
2020/12/20 12:32:19;;;;;;;38.15;11.38;;;9.90;99.90;;;;;;4922346;29;20485;-85
2020/12/20 12:34:46;;;;;;;33.28;11.65;;;9.90;99.90;;;;;;4941775;29;20034;-86
2020/12/20 12:37:11;;;;;;;38.08;13.18;;;9.80;99.90;;;;;;4941933;29;20035;-86
2020/12/20 12:39:37;;;;;;;32.67;13.32;;;9.80;99.90;;;;;;4941695;29;20405;-85
2020/12/20 12:42:05;;;;;;;33.58;12.07;;;9.90;99.90;;;;;;4941681;29;20117;-83